createdAt,value
2023-08-07T14:04:34.734Z,18.70
2023-08-07T14:07:03.070Z,25.50
2023-08-07T14:09:30.533Z,26.60
2023-08-07T14:11:59.074Z,25.80
2023-08-07T14:14:26.874Z,24.40
2023-08-07T14:16:58.110Z,21.80
2023-08-07T14:19:25.957Z,23.00
2023-08-07T14:21:53.536Z,25.20
2023-08-07T14:24:20.896Z,26.00
2023-08-07T14:26:48.124Z,25.00
2023-08-07T14:29:15.664Z,26.30
2023-08-07T14:31:42.993Z,25.50
2023-08-07T14:34:10.403Z,25.40
2023-08-07T14:36:38.342Z,27.50
2023-08-07T14:39:05.664Z,27.90
2023-08-07T14:41:32.792Z,28.30
2023-08-07T14:44:00.124Z,27.20
2023-08-07T14:46:27.357Z,26.70
2023-08-07T14:48:54.644Z,27.00
2023-08-07T14:51:21.959Z,26.40
2023-08-07T14:53:49.215Z,26.10
2023-08-07T14:56:16.477Z,26.60
2023-08-07T14:58:43.806Z,27.40
2023-08-07T15:01:11.593Z,27.70
2023-08-07T15:03:38.942Z,27.20
2023-08-07T15:06:06.252Z,26.30
2023-08-07T15:08:34.616Z,26.90
2023-08-07T15:11:01.987Z,27.90
2023-08-07T15:13:30.512Z,27.00
2023-08-07T15:15:57.963Z,26.90
2023-08-07T15:18:25.400Z,26.90
2023-08-07T15:20:52.775Z,27.20
2023-08-07T15:23:20.072Z,27.50
2023-08-07T15:25:48.381Z,26.80
2023-08-07T15:28:15.781Z,27.60
2023-08-07T15:30:52.101Z,26.50
2023-08-07T15:33:22.656Z,26.20
2023-08-07T15:35:55.566Z,26.40
2023-08-07T15:38:23.308Z,27.30
2023-08-07T15:40:52.489Z,26.60
2023-08-07T15:43:19.839Z,27.40
2023-08-07T15:45:49.312Z,26.80
2023-08-07T15:48:18.185Z,22.70
2023-08-07T15:50:45.514Z,22.60
2023-08-07T15:53:12.980Z,22.20
2023-08-07T15:55:40.335Z,20.30
2023-08-07T15:58:08.161Z,19.50
2023-08-07T16:00:36.400Z,19.00
2023-08-07T16:03:06.236Z,19.00
2023-08-07T16:05:35.069Z,19.00
2023-08-07T16:08:03.271Z,18.90
2023-08-07T16:10:33.397Z,19.00
2023-08-07T16:13:01.006Z,19.10
2023-08-07T16:15:28.498Z,19.20
2023-08-07T16:17:56.142Z,19.40
2023-08-07T16:20:23.443Z,19.20
2023-08-07T16:22:52.063Z,19.40
2023-08-07T16:25:19.290Z,18.70
2023-08-07T16:27:46.811Z,18.20
2023-08-07T16:30:14.060Z,18.10
2023-08-07T16:32:41.307Z,17.80
2023-08-07T16:35:09.098Z,18.00
2023-08-07T16:37:36.906Z,18.00
2023-08-07T16:40:06.705Z,18.00
2023-08-07T16:42:34.095Z,17.90
2023-08-07T16:45:01.419Z,17.60
2023-08-07T16:47:28.783Z,17.50
2023-08-07T16:49:56.235Z,17.60
2023-08-07T16:52:23.437Z,17.50
2023-08-07T16:54:54.375Z,17.30
2023-08-07T16:57:22.524Z,17.10
2023-08-07T16:59:49.992Z,17.10
2023-08-07T17:02:17.414Z,17.10
2023-08-07T17:04:44.782Z,17.00
2023-08-07T17:07:12.839Z,16.90
2023-08-07T17:09:39.992Z,17.00
2023-08-07T17:12:08.102Z,17.00
2023-08-07T17:14:36.258Z,16.90
2023-08-07T17:17:03.617Z,17.00
2023-08-07T17:19:30.789Z,16.90
2023-08-07T17:21:58.365Z,16.90
2023-08-07T17:24:26.229Z,16.80
2023-08-07T17:26:53.764Z,16.70
2023-08-07T17:29:21.193Z,16.80
2023-08-07T17:31:48.528Z,16.90
2023-08-07T17:34:15.877Z,16.90
2023-08-07T17:36:43.770Z,16.90
2023-08-07T17:39:11.024Z,16.90
2023-08-07T17:41:38.220Z,16.80
2023-08-07T17:44:06.561Z,16.90
2023-08-07T17:46:34.018Z,16.90
2023-08-07T17:49:01.725Z,16.80
2023-08-07T17:51:30.235Z,16.80
2023-08-07T17:53:57.843Z,16.90
2023-08-07T17:56:25.882Z,16.80
2023-08-07T17:58:53.308Z,16.70
2023-08-07T18:01:20.605Z,16.70
2023-08-07T18:03:48.545Z,16.60
2023-08-07T18:06:15.877Z,16.50
2023-08-07T18:08:43.108Z,16.50
2023-08-07T18:11:10.766Z,16.40
2023-08-07T18:13:37.909Z,16.30
2023-08-07T18:16:05.641Z,16.20
2023-08-07T18:18:32.774Z,16.10
2023-08-07T18:21:00.925Z,16.10
2023-08-07T18:23:28.312Z,16.00
2023-08-07T18:25:55.893Z,16.00
2023-08-07T18:28:23.238Z,15.90
2023-08-07T18:30:50.670Z,15.90
2023-08-07T18:33:17.941Z,15.90
2023-08-07T18:35:45.296Z,15.80
2023-08-07T18:38:12.660Z,15.80
2023-08-07T18:40:39.854Z,15.70
2023-08-07T18:43:07.014Z,15.80
2023-08-07T18:45:34.219Z,15.70
2023-08-07T18:48:01.408Z,15.70
2023-08-07T18:50:28.680Z,15.70
2023-08-07T18:52:56.805Z,15.80
2023-08-07T18:55:24.598Z,15.70
2023-08-07T18:57:51.941Z,15.70
2023-08-07T19:00:19.770Z,15.80
2023-08-07T19:02:47.682Z,15.80
2023-08-07T19:05:15.252Z,15.80
2023-08-07T19:07:42.672Z,15.70
2023-08-07T19:10:10.641Z,15.70
2023-08-07T19:12:38.001Z,15.70
2023-08-07T19:15:05.829Z,15.70
2023-08-07T19:17:34.736Z,15.80
2023-08-07T19:20:02.005Z,15.70
2023-08-07T19:22:31.346Z,15.80
2023-08-07T19:24:58.732Z,15.70
2023-08-07T19:27:26.155Z,15.70
2023-08-07T19:29:54.866Z,15.70
2023-08-07T19:32:22.354Z,15.70
2023-08-07T19:34:49.786Z,15.70
2023-08-07T19:37:16.994Z,15.70
2023-08-07T19:39:44.215Z,15.70
2023-08-07T19:42:11.400Z,15.70
2023-08-07T19:44:38.676Z,15.60
2023-08-07T19:47:06.057Z,15.60
2023-08-07T19:49:33.394Z,15.60
2023-08-07T19:52:01.241Z,15.70
2023-08-07T19:54:28.585Z,15.60
2023-08-07T19:56:56.075Z,15.60
2023-08-07T19:59:25.174Z,15.50
2023-08-07T20:01:52.418Z,15.50
2023-08-07T20:04:19.662Z,15.60
2023-08-07T20:06:47.319Z,15.50
2023-08-07T20:09:14.753Z,15.40
2023-08-07T20:11:42.830Z,15.50
2023-08-07T20:14:10.076Z,15.40
2023-08-07T20:16:37.276Z,15.40
2023-08-07T20:19:04.535Z,15.50
2023-08-07T20:21:31.872Z,15.50
2023-08-07T20:23:59.218Z,15.40
2023-08-07T20:26:26.559Z,15.30
2023-08-07T20:28:54.091Z,15.30
2023-08-07T20:31:21.550Z,15.30
2023-08-07T20:33:48.852Z,15.30
2023-08-07T20:36:16.960Z,15.30
2023-08-07T20:38:44.253Z,15.30
2023-08-07T20:41:11.567Z,15.30
2023-08-07T20:43:38.856Z,15.30
2023-08-07T20:46:06.119Z,15.30
2023-08-07T20:48:33.420Z,15.30
2023-08-07T20:51:00.697Z,15.20
2023-08-07T20:53:27.958Z,15.20
2023-08-07T20:55:55.277Z,15.10
2023-08-07T20:58:22.527Z,15.10
2023-08-07T21:00:49.938Z,15.10
2023-08-07T21:03:17.835Z,15.10
2023-08-07T21:05:45.187Z,15.00
2023-08-07T21:08:12.748Z,15.00
2023-08-07T21:10:39.956Z,14.90
2023-08-07T21:13:07.136Z,14.90
2023-08-07T21:15:34.563Z,14.90
2023-08-07T21:18:03.543Z,14.80
2023-08-07T21:20:30.846Z,14.80
2023-08-07T21:22:58.304Z,14.70
2023-08-07T21:25:25.464Z,14.70
2023-08-07T21:27:52.789Z,14.70
2023-08-07T21:30:20.231Z,14.70
2023-08-07T21:32:47.601Z,14.70
2023-08-07T21:35:15.362Z,14.70
2023-08-07T21:37:42.991Z,14.70
2023-08-07T21:40:12.381Z,14.70
2023-08-07T21:42:40.049Z,14.80
2023-08-07T21:45:08.921Z,14.80
2023-08-07T21:47:36.361Z,14.80
2023-08-07T21:50:03.669Z,14.80
2023-08-07T21:52:30.986Z,14.80
2023-08-07T21:54:58.212Z,14.70
2023-08-07T21:57:25.608Z,14.70
2023-08-07T21:59:53.050Z,14.60
2023-08-07T22:02:20.282Z,14.60
2023-08-07T22:04:47.664Z,14.60
2023-08-07T22:07:14.960Z,14.60
2023-08-07T22:09:42.259Z,14.50
2023-08-07T22:12:09.946Z,14.60
2023-08-07T22:14:37.272Z,14.60
2023-08-07T22:17:05.081Z,14.50
2023-08-07T22:19:32.757Z,14.50
2023-08-07T22:22:00.179Z,14.50
2023-08-07T22:24:27.837Z,14.50
2023-08-07T22:26:56.045Z,14.40
2023-08-07T22:29:23.642Z,14.40
2023-08-07T22:31:51.057Z,14.30
2023-08-07T22:34:18.433Z,14.20
2023-08-07T22:36:45.709Z,14.10
2023-08-07T22:39:12.982Z,14.10
2023-08-07T22:41:40.224Z,14.10
2023-08-07T22:44:07.655Z,14.10
2023-08-07T22:46:34.842Z,14.10
2023-08-07T22:49:02.211Z,14.10
2023-08-07T22:51:29.326Z,14.10
2023-08-07T22:53:56.698Z,14.10
2023-08-07T22:56:23.986Z,14.10
2023-08-07T22:58:52.822Z,14.10
2023-08-07T23:01:20.088Z,14.00
2023-08-07T23:03:47.543Z,14.10
2023-08-07T23:06:14.939Z,14.00
2023-08-07T23:08:45.301Z,14.00
2023-08-07T23:11:12.579Z,13.90
2023-08-07T23:13:39.991Z,13.90
2023-08-07T23:16:07.354Z,13.90
2023-08-07T23:18:34.613Z,13.90
2023-08-07T23:21:01.923Z,13.90
2023-08-07T23:23:29.188Z,13.90
2023-08-07T23:25:56.409Z,13.80
2023-08-07T23:28:24.683Z,13.80
2023-08-07T23:30:51.829Z,13.70
2023-08-07T23:33:19.311Z,13.70
2023-08-07T23:35:46.556Z,13.60
2023-08-07T23:38:13.737Z,13.70
2023-08-07T23:40:42.821Z,13.70
2023-08-07T23:43:10.959Z,13.70
2023-08-07T23:45:38.174Z,13.70
2023-08-07T23:48:06.208Z,13.70
2023-08-07T23:50:33.718Z,13.70
2023-08-07T23:53:00.998Z,13.60
2023-08-07T23:55:28.435Z,13.60
2023-08-07T23:57:55.742Z,13.60
